createdAt,value
2018-09-02T00:02:20.512Z,10.20
2018-09-02T00:04:49.591Z,8.77
2018-09-02T00:07:18.706Z,10.13
2018-09-02T00:09:47.743Z,8.00
2018-09-02T00:12:16.810Z,10.63
2018-09-02T00:14:45.888Z,9.93
2018-09-02T00:17:14.944Z,10.07
2018-09-02T00:19:44.080Z,4.87
2018-09-02T00:22:13.111Z,6.63
2018-09-02T00:24:42.329Z,4.67
2018-09-02T00:27:11.852Z,5.80
2018-09-02T00:29:41.205Z,7.50
2018-09-02T00:32:10.269Z,7.67
2018-09-02T00:34:39.332Z,7.07
2018-09-02T00:37:09.216Z,10.70
2018-09-02T00:39:38.277Z,6.00
2018-09-02T00:42:07.313Z,5.53
2018-09-02T00:44:36.385Z,5.77
2018-09-02T00:47:05.713Z,7.33
2018-09-02T00:49:34.756Z,6.77
2018-09-02T00:52:04.045Z,7.93
2018-09-02T00:54:33.176Z,8.23
2018-09-02T00:57:02.345Z,5.83
2018-09-02T00:59:31.423Z,3.83
2018-09-02T01:02:00.459Z,9.15
2018-09-02T01:04:29.624Z,6.57
2018-09-02T01:06:59.424Z,6.10
2018-09-02T01:09:28.708Z,8.78
2018-09-02T01:11:59.716Z,7.92
2018-09-02T01:14:29.203Z,4.83
2018-09-02T01:17:00.024Z,3.63
2018-09-02T01:19:29.219Z,5.43
2018-09-02T01:21:58.397Z,5.72
2018-09-02T01:24:27.553Z,7.67
2018-09-02T01:26:56.683Z,7.03
2018-09-02T01:29:25.887Z,6.30
2018-09-02T01:31:54.975Z,5.03
2018-09-02T01:34:24.582Z,6.10
2018-09-02T01:36:53.705Z,7.37
2018-09-02T01:39:22.809Z,5.65
2018-09-02T01:41:51.939Z,6.60
2018-09-02T01:44:21.225Z,4.60
2018-09-02T01:46:51.586Z,4.50
2018-09-02T01:49:20.730Z,5.42
2018-09-02T01:51:49.884Z,9.45
2018-09-02T01:54:18.987Z,7.50
2018-09-02T01:56:49.475Z,6.93
2018-09-02T01:59:19.650Z,6.57
2018-09-02T02:01:51.184Z,8.47
2018-09-02T02:09:18.156Z,7.53
2018-09-02T02:11:47.622Z,5.07
2018-09-02T02:14:17.085Z,7.37
2018-09-02T02:16:46.312Z,4.30
2018-09-02T02:19:15.526Z,8.10
2018-09-02T02:21:44.686Z,7.20
2018-09-02T02:24:14.816Z,9.08
2018-09-02T02:26:48.133Z,9.90
2018-09-02T02:29:19.193Z,8.40
2018-09-02T02:31:48.663Z,12.23
2018-09-02T02:34:18.041Z,5.37
2018-09-02T02:36:47.401Z,4.27
2018-09-02T02:39:17.290Z,5.05
2018-09-02T02:41:49.776Z,8.10
2018-09-02T02:44:18.953Z,5.43
2018-09-02T02:46:48.083Z,5.73
2018-09-02T02:49:17.216Z,3.57
2018-09-02T02:51:46.623Z,6.60
2018-09-02T02:54:18.070Z,7.73
2018-09-02T02:56:47.373Z,6.80
2018-09-02T02:59:16.493Z,6.30
2018-09-02T03:01:46.194Z,6.87
2018-09-02T03:04:16.007Z,7.83
2018-09-02T03:06:47.939Z,7.85
2018-09-02T03:09:17.390Z,4.90
2018-09-02T03:11:46.648Z,7.37
2018-09-02T03:14:16.433Z,5.83
2018-09-02T03:16:48.275Z,7.23
2018-09-02T03:19:17.369Z,9.33
2018-09-02T03:21:46.570Z,9.30
2018-09-02T03:24:16.387Z,9.30
2018-09-02T03:26:45.591Z,6.77
2018-09-02T03:29:16.196Z,8.08
2018-09-02T03:31:46.635Z,6.57
2018-09-02T03:34:16.054Z,9.60
2018-09-02T03:36:45.635Z,5.20
2018-09-02T03:39:17.637Z,7.07
2018-09-02T03:41:47.437Z,7.53
2018-09-02T03:44:17.311Z,7.00
2018-09-02T03:46:47.514Z,10.33
2018-09-02T03:49:17.686Z,7.60
2018-09-02T03:51:47.434Z,9.67
2018-09-02T03:54:17.835Z,7.15
2018-09-02T03:56:47.885Z,5.77
2018-09-02T03:59:18.714Z,4.37
2018-09-02T04:01:48.913Z,5.78
2018-09-02T04:04:18.761Z,7.83
2018-09-02T04:06:49.269Z,4.53
2018-09-02T04:09:18.928Z,4.60
2018-09-02T04:11:48.595Z,5.15
2018-09-02T04:14:18.386Z,5.40
2018-09-02T04:16:48.234Z,8.27
2018-09-02T04:19:17.873Z,7.05
2018-09-02T04:21:47.784Z,7.43
2018-09-02T04:24:17.428Z,6.43
2018-09-02T04:26:47.206Z,5.57
2018-09-02T04:29:18.248Z,5.50
2018-09-02T04:31:47.874Z,8.40
2018-09-02T04:34:18.430Z,5.43
2018-09-02T04:36:48.306Z,6.87
2018-09-02T04:39:18.209Z,7.70
2018-09-02T04:41:48.758Z,6.93
2018-09-02T04:44:20.232Z,9.35
2018-09-02T04:46:51.022Z,5.80
2018-09-02T04:49:20.733Z,8.13
2018-09-02T04:51:50.815Z,6.87
2018-09-02T04:54:21.457Z,7.03
2018-09-02T04:56:51.762Z,7.83
2018-09-02T04:59:21.849Z,6.07
2018-09-02T05:01:51.607Z,9.60
2018-09-02T05:04:21.475Z,6.40
2018-09-02T05:06:51.571Z,6.30
2018-09-02T05:09:21.161Z,6.43
2018-09-02T05:11:52.791Z,4.95
2018-09-02T05:14:22.709Z,8.83
2018-09-02T05:16:52.282Z,4.67
2018-09-02T05:19:21.776Z,6.10
2018-09-02T05:21:51.647Z,5.80
2018-09-02T05:24:21.029Z,9.60
2018-09-02T05:26:50.835Z,6.28
2018-09-02T05:29:21.004Z,6.40
2018-09-02T05:31:50.960Z,7.40
2018-09-02T05:34:21.090Z,8.23
2018-09-02T05:36:50.620Z,6.83
2018-09-02T05:39:20.100Z,5.70
2018-09-02T05:41:49.632Z,10.53
2018-09-02T05:44:19.309Z,7.13
2018-09-02T05:46:48.845Z,10.00
2018-09-02T05:49:18.150Z,5.57
2018-09-02T05:51:48.020Z,6.47
2018-09-02T05:59:15.088Z,13.80
2018-09-02T06:01:44.208Z,6.80
2018-09-02T06:04:13.389Z,5.33
2018-09-02T06:06:42.506Z,7.47
2018-09-02T06:09:11.803Z,6.05
2018-09-02T06:11:40.961Z,7.70
2018-09-02T06:14:10.079Z,7.50
2018-09-02T06:16:39.293Z,7.87
2018-09-02T06:19:08.481Z,6.87
2018-09-02T06:21:37.545Z,6.77
2018-09-02T06:24:07.186Z,8.03
2018-09-02T06:26:36.277Z,9.00
2018-09-02T06:29:05.424Z,7.97
2018-09-02T06:31:34.577Z,5.97
2018-09-02T06:34:03.649Z,8.83
2018-09-02T06:36:32.752Z,6.87
2018-09-02T06:39:01.841Z,7.40
2018-09-02T06:41:30.988Z,9.43
2018-09-02T06:44:00.131Z,9.43
2018-09-02T06:46:29.265Z,17.00
2018-09-02T06:48:58.869Z,14.35
2018-09-02T06:51:28.034Z,12.97
2018-09-02T06:53:57.099Z,9.23
2018-09-02T06:56:26.410Z,12.47
2018-09-02T06:58:55.533Z,13.07
2018-09-02T07:01:24.775Z,9.30
2018-09-02T07:03:53.871Z,11.80
2018-09-02T07:06:22.989Z,13.77
2018-09-02T07:08:52.068Z,15.70
2018-09-02T07:11:21.283Z,16.13
2018-09-02T07:13:50.396Z,17.43
2018-09-02T07:16:19.620Z,15.13
2018-09-02T07:18:48.720Z,17.83
2018-09-02T07:21:17.976Z,16.97
2018-09-02T07:23:47.105Z,12.93
2018-09-02T07:26:16.319Z,15.73
2018-09-02T07:28:46.772Z,18.53
2018-09-02T07:31:16.082Z,14.33
2018-09-02T07:33:45.207Z,20.60
2018-09-02T07:36:14.497Z,17.23
2018-09-02T07:38:43.773Z,12.37
2018-09-02T07:41:12.888Z,18.50
2018-09-02T07:43:42.234Z,15.00
2018-09-02T07:46:11.445Z,19.60
2018-09-02T07:48:40.693Z,18.17
2018-09-02T07:51:10.124Z,16.23
2018-09-02T07:53:39.374Z,18.75
2018-09-02T07:56:08.609Z,11.60
2018-09-02T07:58:37.735Z,15.27
2018-09-02T08:01:06.873Z,12.43
2018-09-02T08:03:36.312Z,15.87
2018-09-02T08:06:05.357Z,14.27
2018-09-02T08:08:34.565Z,9.83
2018-09-02T08:11:03.769Z,13.60
2018-09-02T08:13:32.817Z,11.00
2018-09-02T08:16:02.173Z,15.13
2018-09-02T08:18:31.230Z,11.40
2018-09-02T08:21:00.314Z,11.97
2018-09-02T08:23:29.515Z,11.97
2018-09-02T08:25:58.590Z,12.27
2018-09-02T08:28:27.780Z,12.17
2018-09-02T08:30:57.311Z,11.70
2018-09-02T08:33:26.704Z,12.70
2018-09-02T08:35:55.808Z,14.00
2018-09-02T08:38:26.195Z,12.23
2018-09-02T08:40:55.538Z,13.80
2018-09-02T08:43:24.716Z,12.93
2018-09-02T08:45:53.839Z,9.07
2018-09-02T08:48:23.043Z,9.03
2018-09-02T08:50:52.307Z,8.40
2018-09-02T08:53:21.542Z,12.23
2018-09-02T08:55:50.709Z,10.07
2018-09-02T08:58:19.896Z,7.10
2018-09-02T09:00:49.127Z,10.58
2018-09-02T09:03:18.413Z,10.87
2018-09-02T09:05:47.668Z,8.60
2018-09-02T09:08:17.051Z,12.30
2018-09-02T09:10:46.130Z,8.23
2018-09-02T09:13:15.480Z,9.37
2018-09-02T09:15:44.805Z,8.07
2018-09-02T09:18:13.951Z,5.65
2018-09-02T09:20:43.462Z,8.63
2018-09-02T09:23:12.603Z,6.70
2018-09-02T09:25:41.784Z,7.00
2018-09-02T09:28:11.023Z,6.17
2018-09-02T09:30:40.206Z,8.67
2018-09-02T09:33:09.321Z,9.85
2018-09-02T09:35:38.632Z,7.35
2018-09-02T09:38:08.159Z,6.07
2018-09-02T09:40:37.388Z,8.87
2018-09-02T09:43:06.795Z,7.30
2018-09-02T09:45:36.035Z,7.27
2018-09-02T09:48:05.159Z,6.03
2018-09-02T09:50:34.459Z,5.17
2018-09-02T09:53:03.529Z,5.10
2018-09-02T09:55:32.623Z,7.97
2018-09-02T09:58:01.745Z,5.70
2018-09-02T10:00:36.317Z,10.60
2018-09-02T10:03:05.549Z,5.40
2018-09-02T10:05:34.925Z,7.58
2018-09-02T10:08:04.056Z,5.62
2018-09-02T10:10:33.401Z,7.37
2018-09-02T10:13:02.666Z,5.13
2018-09-02T10:15:31.799Z,5.37
2018-09-02T10:18:00.968Z,7.57
2018-09-02T10:20:30.927Z,10.10
2018-09-02T10:23:00.455Z,6.58
2018-09-02T10:25:29.659Z,6.23
2018-09-02T10:27:58.952Z,6.20
2018-09-02T10:30:28.287Z,6.58
2018-09-02T10:32:58.228Z,7.80
2018-09-02T10:35:27.335Z,5.43
2018-09-02T10:37:56.604Z,6.47
2018-09-02T10:40:25.803Z,6.58
2018-09-02T10:42:56.286Z,4.97
2018-09-02T10:45:25.589Z,4.20
2018-09-02T10:47:54.739Z,4.80
2018-09-02T10:50:23.965Z,4.53
2018-09-02T10:52:53.114Z,4.40
2018-09-02T10:55:22.283Z,3.93
2018-09-02T10:57:51.504Z,6.25
2018-09-02T11:00:21.565Z,5.08
2018-09-02T11:02:50.664Z,8.33
2018-09-02T11:05:19.808Z,3.53
2018-09-02T11:07:49.211Z,3.42
2018-09-02T11:10:18.410Z,7.00
2018-09-02T11:12:47.898Z,7.50
2018-09-02T11:15:17.115Z,6.70
2018-09-02T11:17:46.276Z,6.97
2018-09-02T11:20:15.519Z,4.20
2018-09-02T11:22:44.741Z,4.10
2018-09-02T11:25:14.035Z,5.47
2018-09-02T11:27:43.433Z,4.42
2018-09-02T11:30:12.829Z,4.67
2018-09-02T11:32:42.122Z,4.62
2018-09-02T11:35:11.320Z,6.23
2018-09-02T11:37:41.342Z,10.83
2018-09-02T11:40:10.550Z,9.00
2018-09-02T11:42:39.712Z,5.00
2018-09-02T11:45:09.176Z,7.33
2018-09-02T11:47:38.248Z,4.17
2018-09-02T11:50:07.484Z,6.03
2018-09-02T11:52:37.413Z,4.72
2018-09-02T11:55:08.104Z,5.30
2018-09-02T11:57:37.401Z,3.93
2018-09-02T12:00:06.849Z,6.83
2018-09-02T12:02:36.047Z,3.80
2018-09-02T12:05:05.205Z,4.77
2018-09-02T12:07:34.473Z,6.12
2018-09-02T12:10:03.715Z,6.00
2018-09-02T12:12:32.963Z,3.70
2018-09-02T12:15:02.280Z,5.80
2018-09-02T12:17:31.505Z,4.85
2018-09-02T12:20:00.827Z,4.90
2018-09-02T12:22:30.221Z,5.33
2018-09-02T12:24:59.486Z,4.30
2018-09-02T12:27:28.621Z,3.33
2018-09-02T12:29:58.009Z,5.17
2018-09-02T12:32:27.233Z,6.60
2018-09-02T12:34:56.620Z,4.50
2018-09-02T12:37:25.825Z,4.85
2018-09-02T12:39:55.215Z,8.17
2018-09-02T12:42:24.616Z,4.23
2018-09-02T12:44:53.794Z,3.47
2018-09-02T12:47:23.006Z,3.83
2018-09-02T12:49:52.300Z,10.58
2018-09-02T12:52:21.868Z,2.97
2018-09-02T12:54:51.070Z,4.13
2018-09-02T12:57:20.920Z,7.10
2018-09-02T12:59:50.129Z,7.22
2018-09-02T13:02:19.171Z,3.08
2018-09-02T13:04:48.537Z,4.22
2018-09-02T13:07:17.756Z,5.30
2018-09-02T13:09:46.988Z,4.43
2018-09-02T13:12:16.152Z,5.23
2018-09-02T13:14:45.580Z,4.53
2018-09-02T13:17:14.746Z,3.80
2018-09-02T13:19:44.003Z,3.50
2018-09-02T13:22:13.750Z,3.20
2018-09-02T13:24:43.094Z,4.10
2018-09-02T13:27:12.177Z,3.43
2018-09-02T13:29:42.358Z,3.37
2018-09-02T13:32:11.462Z,4.00
2018-09-02T13:34:40.762Z,4.90
2018-09-02T13:37:09.976Z,3.33
2018-09-02T13:39:39.125Z,5.13
2018-09-02T13:42:08.278Z,3.37
2018-09-02T13:44:37.318Z,3.37
2018-09-02T13:47:06.754Z,3.73
2018-09-02T13:49:36.162Z,4.53
2018-09-02T13:52:05.284Z,5.47
2018-09-02T13:54:34.540Z,3.83
2018-09-02T13:57:03.744Z,3.30
2018-09-02T13:59:32.877Z,5.45
2018-09-02T14:02:01.932Z,4.72
2018-09-02T14:04:31.021Z,4.72
2018-09-02T14:07:00.094Z,4.10
2018-09-02T14:09:29.254Z,3.10
2018-09-02T14:11:58.340Z,3.60
2018-09-02T14:14:27.488Z,5.17
2018-09-02T14:16:56.621Z,4.55
2018-09-02T14:19:25.732Z,3.20
2018-09-02T14:21:55.048Z,4.05
2018-09-02T14:24:24.144Z,4.67
2018-09-02T14:26:53.445Z,3.72
2018-09-02T14:29:22.710Z,3.90
2018-09-02T14:31:51.855Z,4.20
2018-09-02T14:34:21.317Z,5.03
2018-09-02T14:36:50.437Z,3.17
2018-09-02T14:39:19.728Z,7.85
2018-09-02T14:41:48.844Z,4.40
2018-09-02T14:44:17.937Z,4.75
2018-09-02T14:46:47.077Z,9.10
2018-09-02T14:49:16.296Z,8.43
2018-09-02T14:51:46.639Z,4.77
2018-09-02T14:54:15.760Z,3.37
2018-09-02T14:56:45.031Z,5.40
2018-09-02T14:59:14.152Z,8.03
2018-09-02T15:01:43.333Z,4.17
2018-09-02T15:04:12.528Z,4.63
2018-09-02T15:06:41.716Z,5.10
2018-09-02T15:09:11.313Z,3.10
2018-09-02T15:11:41.150Z,3.90
2018-09-02T15:14:10.287Z,4.10
2018-09-02T15:16:39.634Z,4.40
2018-09-02T15:19:09.037Z,4.30
2018-09-02T15:21:38.289Z,2.75
2018-09-02T15:24:07.562Z,4.25
2018-09-02T15:26:36.693Z,6.43
2018-09-02T15:29:05.872Z,3.40
2018-09-02T15:31:35.097Z,4.70
2018-09-02T15:34:04.187Z,3.43
2018-09-02T15:36:33.375Z,6.33
2018-09-02T15:39:02.464Z,4.90
2018-09-02T15:41:31.602Z,3.15
2018-09-02T15:44:01.396Z,4.58
2018-09-02T15:46:30.557Z,2.50
2018-09-02T15:48:59.798Z,3.47
2018-09-02T15:51:28.987Z,4.63
2018-09-02T15:53:58.141Z,4.10
2018-09-02T15:59:03.870Z,3.70
2018-09-02T16:01:33.248Z,3.05
2018-09-02T16:04:02.462Z,7.85
2018-09-02T16:06:31.598Z,3.43
2018-09-02T16:09:00.682Z,3.60
2018-09-02T16:11:29.857Z,4.30
2018-09-02T16:13:58.974Z,4.07
2018-09-02T16:16:28.198Z,2.45
2018-09-02T16:18:57.644Z,3.62
2018-09-02T16:21:29.299Z,6.45
2018-09-02T16:23:59.810Z,6.60
2018-09-02T16:26:28.951Z,3.30
2018-09-02T16:28:58.355Z,3.27
2018-09-02T16:31:27.602Z,2.58
2018-09-02T16:33:56.974Z,3.07
2018-09-02T16:36:26.304Z,2.60
2018-09-02T16:38:55.487Z,3.30
2018-09-02T16:41:24.697Z,5.17
2018-09-02T16:43:53.884Z,5.20
2018-09-02T16:46:23.116Z,4.42
2018-09-02T16:48:52.285Z,4.22
2018-09-02T16:51:21.424Z,2.50
2018-09-02T16:53:50.553Z,2.97
2018-09-02T16:56:19.609Z,4.23
2018-09-02T16:58:48.768Z,2.73
2018-09-02T17:01:18.592Z,4.20
2018-09-02T17:03:52.116Z,1.98
2018-09-02T17:06:21.248Z,3.85
2018-09-02T17:08:51.300Z,2.63
2018-09-02T17:11:20.478Z,4.47
2018-09-02T17:13:49.913Z,2.93
2018-09-02T17:16:19.278Z,3.00
2018-09-02T17:18:50.838Z,2.80
2018-09-02T17:21:20.060Z,7.83
2018-09-02T17:23:49.284Z,3.63
2018-09-02T17:26:18.541Z,4.50
2018-09-02T17:28:47.708Z,7.13
2018-09-02T17:31:16.844Z,5.83
2018-09-02T17:33:45.936Z,2.40
2018-09-02T17:36:15.145Z,3.47
2018-09-02T17:38:44.363Z,5.97
2018-09-02T17:41:13.814Z,4.63
2018-09-02T17:43:43.016Z,5.20
2018-09-02T17:46:12.246Z,2.63
2018-09-02T17:48:41.439Z,1.90
2018-09-02T17:51:10.769Z,5.15
2018-09-02T17:53:39.899Z,4.20
2018-09-02T17:56:09.289Z,4.13
2018-09-02T17:58:38.473Z,3.30
2018-09-02T18:01:07.580Z,2.70
2018-09-02T18:03:36.726Z,3.03
2018-09-02T18:06:06.010Z,2.53
2018-09-02T18:08:35.273Z,3.40
2018-09-02T18:11:06.418Z,2.93
2018-09-02T18:13:35.836Z,2.20
2018-09-02T18:16:05.162Z,5.27
2018-09-02T18:18:34.410Z,2.50
2018-09-02T18:21:03.800Z,4.17
2018-09-02T18:23:33.113Z,4.17
2018-09-02T18:26:02.933Z,4.62
2018-09-02T18:28:36.220Z,2.53
2018-09-02T18:31:07.241Z,6.30
2018-09-02T18:33:36.657Z,3.13
2018-09-02T18:36:06.122Z,4.47
2018-09-02T18:38:35.416Z,5.78
2018-09-02T18:41:05.203Z,4.05
2018-09-02T18:43:36.388Z,4.07
2018-09-02T18:46:05.845Z,3.75
2018-09-02T18:48:35.051Z,5.07
2018-09-02T18:51:05.397Z,2.67
2018-09-02T18:53:34.704Z,3.27
2018-09-02T18:56:03.948Z,2.83
2018-09-02T18:58:34.418Z,5.05
2018-09-02T19:01:03.542Z,2.95
2018-09-02T19:03:32.886Z,4.53
2018-09-02T19:06:02.063Z,3.20
2018-09-02T19:08:31.216Z,2.70
2018-09-02T19:11:01.351Z,3.58
2018-09-02T19:13:31.984Z,3.07
2018-09-02T19:16:01.247Z,2.73
2018-09-02T19:18:30.419Z,3.83
2018-09-02T19:20:59.934Z,2.83
2018-09-02T19:23:29.563Z,3.17
2018-09-02T19:25:59.084Z,2.53
2018-09-02T19:28:29.491Z,4.53
2018-09-02T19:30:58.964Z,5.42
2018-09-02T19:33:28.085Z,3.40
2018-09-02T19:35:59.103Z,4.83
2018-09-02T19:38:29.458Z,2.62
2018-09-02T19:40:59.603Z,2.47
2018-09-02T19:43:30.687Z,2.13
2018-09-02T19:46:05.121Z,4.20
2018-09-02T19:48:34.627Z,2.63
2018-09-02T19:51:05.092Z,2.72
2018-09-02T19:53:34.695Z,2.72
2018-09-02T19:56:05.894Z,3.10
2018-09-02T19:58:37.976Z,2.98
2018-09-02T20:01:07.669Z,2.70
2018-09-02T20:03:39.151Z,2.27
2018-09-02T20:06:09.352Z,8.27
2018-09-02T20:08:39.492Z,2.40
2018-09-02T20:11:11.007Z,2.57
2018-09-02T20:13:41.849Z,4.03
2018-09-02T20:16:12.014Z,2.50
2018-09-02T20:18:45.258Z,3.23
2018-09-02T20:21:15.699Z,2.17
2018-09-02T20:23:45.187Z,3.13
2018-09-02T20:26:17.935Z,2.37
2018-09-02T20:28:47.807Z,1.90
2018-09-02T20:31:19.656Z,2.65
2018-09-02T20:33:52.578Z,7.53
2018-09-02T20:36:23.364Z,4.67
2018-09-02T20:38:53.674Z,3.80
2018-09-02T20:41:24.767Z,1.80
2018-09-02T20:43:56.525Z,1.93
2018-09-02T20:46:26.591Z,2.10
2018-09-02T20:49:02.192Z,3.20
2018-09-02T20:51:32.479Z,2.13
2018-09-02T20:54:04.336Z,3.60
2018-09-02T20:56:34.107Z,2.98
2018-09-02T20:59:04.612Z,1.77
2018-09-02T21:01:34.911Z,3.15
2018-09-02T21:04:05.635Z,1.98
2018-09-02T21:06:35.347Z,2.45
2018-09-02T21:09:08.693Z,3.63
2018-09-02T21:11:41.495Z,1.87
2018-09-02T21:14:13.986Z,4.03
2018-09-02T21:16:46.454Z,2.93
2018-09-02T21:19:18.910Z,3.05
2018-09-02T21:21:48.811Z,2.23
2018-09-02T21:24:20.601Z,3.27
2018-09-02T21:26:49.901Z,2.75
2018-09-02T21:29:19.905Z,2.77
2018-09-02T21:31:50.679Z,6.07
2018-09-02T21:34:20.384Z,3.20
2018-09-02T21:36:50.868Z,4.70
2018-09-02T21:39:20.685Z,4.43
2018-09-02T21:41:52.640Z,3.17
2018-09-02T21:44:22.687Z,2.80
2018-09-02T21:46:52.538Z,3.90
2018-09-02T21:49:21.880Z,5.07
2018-09-02T21:51:51.665Z,2.50
2018-09-02T21:54:21.220Z,4.40
2018-09-02T21:56:52.748Z,3.33
2018-09-02T21:59:22.122Z,4.53
2018-09-02T22:01:51.552Z,4.03
2018-09-02T22:04:21.104Z,6.57
2018-09-02T22:06:51.377Z,4.23
2018-09-02T22:09:21.018Z,5.20
2018-09-02T22:11:51.363Z,6.63
2018-09-02T22:14:26.152Z,4.05
2018-09-02T22:16:57.982Z,4.17
2018-09-02T22:19:28.080Z,7.55
2018-09-02T22:21:58.097Z,3.00
2018-09-02T22:24:28.234Z,7.40
2018-09-02T22:26:58.712Z,4.83
2018-09-02T22:29:28.078Z,5.57
2018-09-02T22:31:58.051Z,5.33
2018-09-02T22:34:29.590Z,6.23
2018-09-02T22:36:59.108Z,5.67
2018-09-02T22:39:29.041Z,5.53
2018-09-02T22:41:59.416Z,5.70
2018-09-02T22:44:29.519Z,5.63
2018-09-02T22:47:04.189Z,2.97
2018-09-02T22:49:35.457Z,4.73
2018-09-02T22:52:05.286Z,4.70
2018-09-02T22:54:36.938Z,6.08
2018-09-02T22:57:07.238Z,4.23
2018-09-02T22:59:39.812Z,5.93
2018-09-02T23:02:12.448Z,3.33
2018-09-02T23:04:42.797Z,4.50
2018-09-02T23:07:12.126Z,4.17
2018-09-02T23:09:41.874Z,6.28
2018-09-02T23:12:11.811Z,4.97
2018-09-02T23:14:42.375Z,6.87
2018-09-02T23:17:11.896Z,5.77
2018-09-02T23:19:42.476Z,7.80
2018-09-02T23:22:12.518Z,3.67
2018-09-02T23:24:44.764Z,6.77
2018-09-02T23:27:19.541Z,3.30
2018-09-02T23:29:49.310Z,4.43
2018-09-02T23:32:18.792Z,6.97
2018-09-02T23:34:52.057Z,5.35
2018-09-02T23:37:22.076Z,9.50
2018-09-02T23:39:53.993Z,2.97
2018-09-02T23:42:26.793Z,4.65
2018-09-02T23:44:55.920Z,5.60
2018-09-02T23:47:25.648Z,4.00
2018-09-02T23:49:58.007Z,4.80
2018-09-02T23:52:27.853Z,5.27
2018-09-02T23:54:57.295Z,5.53
2018-09-02T23:57:26.394Z,5.10
2018-09-02T23:59:57.067Z,4.30
